sensor_id;sensor_type;location;lat;lon;timestamp;pressure;altitude;pressure_sealevel;temperature;humidity
20971;BME280;10644;48.834;10.088;2023-04-28T00:00:53;96560.50;;;15.56;49.37
20971;BME280;10644;48.834;10.088;2023-04-28T00:03:20;96568.94;;;15.69;49.19
20971;BME280;10644;48.834;10.088;2023-04-28T00:05:46;96557.44;;;15.62;49.39
20971;BME280;10644;48.834;10.088;2023-04-28T00:08:13;96563.56;;;15.61;49.47
20971;BME280;10644;48.834;10.088;2023-04-28T00:10:39;96546.28;;;15.50;49.36
20971;BME280;10644;48.834;10.088;2023-04-28T00:13:04;96547.91;;;15.51;49.30
20971;BME280;10644;48.834;10.088;2023-04-28T00:15:29;96535.72;;;15.53;49.23
20971;BME280;10644;48.834;10.088;2023-04-28T00:17:55;96535.13;;;15.39;49.85
20971;BME280;10644;48.834;10.088;2023-04-28T00:20:20;96547.72;;;15.20;50.45
20971;BME280;10644;48.834;10.088;2023-04-28T00:22:45;96536.34;;;15.22;50.22
20971;BME280;10644;48.834;10.088;2023-04-28T00:25:11;96534.78;;;15.09;50.95
20971;BME280;10644;48.834;10.088;2023-04-28T00:27:36;96525.78;;;15.14;50.58
20971;BME280;10644;48.834;10.088;2023-04-28T00:30:05;96511.09;;;15.15;51.24
20971;BME280;10644;48.834;10.088;2023-04-28T00:32:30;96510.47;;;15.35;50.74
20971;BME280;10644;48.834;10.088;2023-04-28T00:34:56;96512.38;;;15.33;50.67
20971;BME280;10644;48.834;10.088;2023-04-28T00:37:21;96502.22;;;15.30;50.57
20971;BME280;10644;48.834;10.088;2023-04-28T00:39:47;96504.81;;;15.30;50.48
20971;BME280;10644;48.834;10.088;2023-04-28T00:42:13;96507.63;;;15.16;50.96
20971;BME280;10644;48.834;10.088;2023-04-28T00:44:41;96500.13;;;15.24;50.86
20971;BME280;10644;48.834;10.088;2023-04-28T00:47:10;96490.97;;;15.31;50.65
20971;BME280;10644;48.834;10.088;2023-04-28T00:49:36;96498.69;;;15.20;51.30
20971;BME280;10644;48.834;10.088;2023-04-28T00:52:06;96494.75;;;15.38;50.70
20971;BME280;10644;48.834;10.088;2023-04-28T00:54:32;96487.63;;;15.52;50.46
20971;BME280;10644;48.834;10.088;2023-04-28T00:56:58;96503.44;;;15.48;50.43
20971;BME280;10644;48.834;10.088;2023-04-28T00:59:24;96490.78;;;15.45;50.75
20971;BME280;10644;48.834;10.088;2023-04-28T01:01:49;96495.69;;;15.48;50.76
20971;BME280;10644;48.834;10.088;2023-04-28T01:04:16;96489.38;;;15.41;50.96
20971;BME280;10644;48.834;10.088;2023-04-28T01:06:43;96493.09;;;15.37;51.33
20971;BME280;10644;48.834;10.088;2023-04-28T01:09:08;96495.66;;;15.26;51.91
20971;BME280;10644;48.834;10.088;2023-04-28T01:11:36;96497.91;;;15.30;51.42
20971;BME280;10644;48.834;10.088;2023-04-28T01:14:01;96496.88;;;15.44;51.30
20971;BME280;10644;48.834;10.088;2023-04-28T01:16:27;96482.47;;;15.52;51.25
20971;BME280;10644;48.834;10.088;2023-04-28T01:18:54;96478.09;;;15.53;51.05
20971;BME280;10644;48.834;10.088;2023-04-28T01:21:46;96473.41;;;15.58;50.65
20971;BME280;10644;48.834;10.088;2023-04-28T01:24:11;96488.91;;;15.47;51.59
20971;BME280;10644;48.834;10.088;2023-04-28T01:26:36;96482.09;;;15.46;51.17
20971;BME280;10644;48.834;10.088;2023-04-28T01:29:02;96487.34;;;15.33;51.49
20971;BME280;10644;48.834;10.088;2023-04-28T01:31:27;96475.75;;;15.39;51.55
20971;BME280;10644;48.834;10.088;2023-04-28T01:33:54;96481.16;;;15.36;52.30
20971;BME280;10644;48.834;10.088;2023-04-28T01:36:20;96481.00;;;15.26;52.48
20971;BME280;10644;48.834;10.088;2023-04-28T01:38:46;96472.72;;;15.34;51.80
20971;BME280;10644;48.834;10.088;2023-04-28T01:41:12;96475.78;;;15.50;51.78
20971;BME280;10644;48.834;10.088;2023-04-28T01:43:37;96464.25;;;15.54;51.56
20971;BME280;10644;48.834;10.088;2023-04-28T01:46:02;96459.66;;;15.57;51.57
20971;BME280;10644;48.834;10.088;2023-04-28T01:48:27;96473.75;;;15.64;52.22
20971;BME280;10644;48.834;10.088;2023-04-28T01:50:53;96469.19;;;15.46;53.26
20971;BME280;10644;48.834;10.088;2023-04-28T01:53:23;96461.44;;;15.57;52.70
20971;BME280;10644;48.834;10.088;2023-04-28T01:56:10;96456.28;;;15.46;54.27
20971;BME280;10644;48.834;10.088;2023-04-28T01:58:36;96444.66;;;15.40;54.29
20971;BME280;10644;48.834;10.088;2023-04-28T02:01:01;96449.00;;;15.51;54.03
20971;BME280;10644;48.834;10.088;2023-04-28T02:03:27;96434.66;;;15.58;54.34
20971;BME280;10644;48.834;10.088;2023-04-28T02:05:53;96439.84;;;15.58;54.78
20971;BME280;10644;48.834;10.088;2023-04-28T02:08:18;96448.44;;;15.47;55.04
20971;BME280;10644;48.834;10.088;2023-04-28T02:10:43;96450.84;;;15.60;54.65
20971;BME280;10644;48.834;10.088;2023-04-28T02:13:09;96451.78;;;15.70;54.63
20971;BME280;10644;48.834;10.088;2023-04-28T02:15:41;96454.16;;;15.73;54.35
20971;BME280;10644;48.834;10.088;2023-04-28T02:18:07;96444.72;;;15.72;54.16
20971;BME280;10644;48.834;10.088;2023-04-28T02:20:32;96447.31;;;15.83;54.00
20971;BME280;10644;48.834;10.088;2023-04-28T02:22:58;96451.97;;;16.00;53.55
20971;BME280;10644;48.834;10.088;2023-04-28T02:25:23;96438.69;;;16.04;53.44
20971;BME280;10644;48.834;10.088;2023-04-28T02:27:49;96446.06;;;16.09;53.73
20971;BME280;10644;48.834;10.088;2023-04-28T02:30:14;96437.44;;;15.77;54.07
20971;BME280;10644;48.834;10.088;2023-04-28T02:32:39;96459.53;;;15.81;53.97
20971;BME280;10644;48.834;10.088;2023-04-28T02:35:05;96454.59;;;15.89;54.12
20971;BME280;10644;48.834;10.088;2023-04-28T02:37:30;96458.09;;;15.88;54.40
20971;BME280;10644;48.834;10.088;2023-04-28T02:39:56;96446.22;;;15.96;54.31
20971;BME280;10644;48.834;10.088;2023-04-28T02:42:22;96448.25;;;15.71;55.53
20971;BME280;10644;48.834;10.088;2023-04-28T02:44:47;96441.25;;;15.62;55.52
20971;BME280;10644;48.834;10.088;2023-04-28T02:47:12;96460.72;;;15.55;56.05
20971;BME280;10644;48.834;10.088;2023-04-28T02:49:40;96443.38;;;15.57;56.67
20971;BME280;10644;48.834;10.088;2023-04-28T02:52:05;96437.25;;;15.47;56.54
20971;BME280;10644;48.834;10.088;2023-04-28T02:54:31;96434.00;;;15.45;57.17
20971;BME280;10644;48.834;10.088;2023-04-28T02:56:58;96425.03;;;15.27;58.17
20971;BME280;10644;48.834;10.088;2023-04-28T02:59:26;96427.16;;;15.11;58.26
20971;BME280;10644;48.834;10.088;2023-04-28T03:01:54;96425.50;;;14.99;59.40
20971;BME280;10644;48.834;10.088;2023-04-28T03:04:19;96428.75;;;14.79;60.08
20971;BME280;10644;48.834;10.088;2023-04-28T03:06:45;96419.09;;;14.70;60.81
20971;BME280;10644;48.834;10.088;2023-04-28T03:09:11;96423.34;;;14.93;59.55
20971;BME280;10644;48.834;10.088;2023-04-28T03:11:37;96419.75;;;15.17;59.16
20971;BME280;10644;48.834;10.088;2023-04-28T03:14:02;96416.09;;;15.09;59.94
20971;BME280;10644;48.834;10.088;2023-04-28T03:16:27;96413.53;;;15.20;58.72
20971;BME280;10644;48.834;10.088;2023-04-28T03:18:53;96404.75;;;15.44;57.59
20971;BME280;10644;48.834;10.088;2023-04-28T03:21:18;96408.63;;;15.61;56.69
20971;BME280;10644;48.834;10.088;2023-04-28T03:23:43;96412.59;;;15.65;56.58
20971;BME280;10644;48.834;10.088;2023-04-28T03:26:09;96409.63;;;15.80;56.65
20971;BME280;10644;48.834;10.088;2023-04-28T03:28:34;96410.06;;;15.85;56.47
20971;BME280;10644;48.834;10.088;2023-04-28T03:31:00;96402.72;;;15.70;57.92
20971;BME280;10644;48.834;10.088;2023-04-28T03:33:26;96393.81;;;15.74;58.00
20971;BME280;10644;48.834;10.088;2023-04-28T03:35:52;96396.63;;;15.60;59.13
20971;BME280;10644;48.834;10.088;2023-04-28T03:38:18;96391.34;;;15.61;58.85
20971;BME280;10644;48.834;10.088;2023-04-28T03:40:43;96380.81;;;15.53;58.92
20971;BME280;10644;48.834;10.088;2023-04-28T03:43:11;96377.91;;;15.36;60.24
20971;BME280;10644;48.834;10.088;2023-04-28T03:45:37;96373.06;;;15.31;60.05
20971;BME280;10644;48.834;10.088;2023-04-28T03:48:05;96374.13;;;15.07;61.25
20971;BME280;10644;48.834;10.088;2023-04-28T03:50:31;96366.28;;;15.08;60.75
20971;BME280;10644;48.834;10.088;2023-04-28T03:52:56;96362.50;;;15.23;60.65
20971;BME280;10644;48.834;10.088;2023-04-28T03:55:22;96364.50;;;15.31;60.29
20971;BME280;10644;48.834;10.088;2023-04-28T03:57:47;96363.09;;;15.38;60.36
20971;BME280;10644;48.834;10.088;2023-04-28T04:00:13;96360.97;;;15.54;59.72
20971;BME280;10644;48.834;10.088;2023-04-28T04:02:38;96362.16;;;15.61;59.82
20971;BME280;10644;48.834;10.088;2023-04-28T04:05:04;96349.91;;;15.74;59.49
20971;BME280;10644;48.834;10.088;2023-04-28T04:07:29;96369.75;;;15.62;60.29
20971;BME280;10644;48.834;10.088;2023-04-28T04:09:55;96369.31;;;15.46;59.95
20971;BME280;10644;48.834;10.088;2023-04-28T04:12:20;96363.72;;;15.41;59.45
20971;BME280;10644;48.834;10.088;2023-04-28T04:14:45;96372.75;;;15.36;59.67
20971;BME280;10644;48.834;10.088;2023-04-28T04:17:11;96370.41;;;15.33;60.08
20971;BME280;10644;48.834;10.088;2023-04-28T04:19:36;96380.94;;;15.41;59.65
20971;BME280;10644;48.834;10.088;2023-04-28T04:22:01;96373.31;;;15.39;60.58
20971;BME280;10644;48.834;10.088;2023-04-28T04:24:26;96384.19;;;15.32;60.86
20971;BME280;10644;48.834;10.088;2023-04-28T04:26:52;96394.81;;;15.40;60.57
20971;BME280;10644;48.834;10.088;2023-04-28T04:29:17;96384.47;;;15.40;60.53
20971;BME280;10644;48.834;10.088;2023-04-28T04:31:43;96383.75;;;15.49;60.12
20971;BME280;10644;48.834;10.088;2023-04-28T04:34:09;96377.50;;;15.29;59.62
20971;BME280;10644;48.834;10.088;2023-04-28T04:36:35;96374.59;;;14.90;61.55
20971;BME280;10644;48.834;10.088;2023-04-28T04:39:00;96375.56;;;15.00;62.06
20971;BME280;10644;48.834;10.088;2023-04-28T04:41:26;96376.25;;;15.13;62.06
20971;BME280;10644;48.834;10.088;2023-04-28T04:43:51;96379.75;;;14.90;62.58
20971;BME280;10644;48.834;10.088;2023-04-28T04:46:16;96380.47;;;15.03;61.33
20971;BME280;10644;48.834;10.088;2023-04-28T04:48:42;96385.41;;;14.95;61.26
20971;BME280;10644;48.834;10.088;2023-04-28T04:51:07;96385.38;;;14.84;62.47
20971;BME280;10644;48.834;10.088;2023-04-28T04:53:33;96375.66;;;14.87;61.35
20971;BME280;10644;48.834;10.088;2023-04-28T04:55:59;96376.34;;;15.00;60.97
20971;BME280;10644;48.834;10.088;2023-04-28T04:58:24;96396.66;;;14.94;62.33
20971;BME280;10644;48.834;10.088;2023-04-28T05:00:50;96390.78;;;15.03;61.34
20971;BME280;10644;48.834;10.088;2023-04-28T05:03:15;96394.31;;;15.24;60.86
20971;BME280;10644;48.834;10.088;2023-04-28T05:05:41;96384.22;;;15.43;60.21
20971;BME280;10644;48.834;10.088;2023-04-28T05:08:06;96380.00;;;15.53;58.81
20971;BME280;10644;48.834;10.088;2023-04-28T05:10:33;96388.78;;;15.17;58.70
20971;BME280;10644;48.834;10.088;2023-04-28T05:12:58;96389.88;;;15.37;58.55
20971;BME280;10644;48.834;10.088;2023-04-28T05:15:24;96397.84;;;15.45;59.37
20971;BME280;10644;48.834;10.088;2023-04-28T05:17:49;96393.16;;;15.17;60.01
20971;BME280;10644;48.834;10.088;2023-04-28T05:20:15;96418.81;;;15.07;60.63
20971;BME280;10644;48.834;10.088;2023-04-28T05:22:40;96411.22;;;15.17;60.34
20971;BME280;10644;48.834;10.088;2023-04-28T05:25:06;96405.56;;;15.01;60.66
20971;BME280;10644;48.834;10.088;2023-04-28T05:27:31;96402.25;;;14.66;61.59
20971;BME280;10644;48.834;10.088;2023-04-28T05:29:57;96404.53;;;14.47;62.43
20971;BME280;10644;48.834;10.088;2023-04-28T05:32:23;96400.50;;;14.32;63.54
20971;BME280;10644;48.834;10.088;2023-04-28T05:34:49;96392.81;;;14.43;63.88
20971;BME280;10644;48.834;10.088;2023-04-28T05:37:14;96384.81;;;14.35;64.16
20971;BME280;10644;48.834;10.088;2023-04-28T05:39:40;96398.84;;;14.31;64.86
20971;BME280;10644;48.834;10.088;2023-04-28T05:42:05;96387.19;;;14.14;65.62
20971;BME280;10644;48.834;10.088;2023-04-28T05:44:30;96376.94;;;14.02;65.41
20971;BME280;10644;48.834;10.088;2023-04-28T05:46:56;96372.91;;;13.87;66.14
20971;BME280;10644;48.834;10.088;2023-04-28T05:49:21;96372.41;;;14.16;64.76
20971;BME280;10644;48.834;10.088;2023-04-28T05:51:46;96377.31;;;14.08;65.92
20971;BME280;10644;48.834;10.088;2023-04-28T05:54:12;96361.53;;;14.13;65.64
20971;BME280;10644;48.834;10.088;2023-04-28T05:56:37;96363.88;;;14.16;65.80
20971;BME280;10644;48.834;10.088;2023-04-28T05:59:03;96373.78;;;14.22;65.14
20971;BME280;10644;48.834;10.088;2023-04-28T06:01:29;96362.03;;;14.52;64.07
20971;BME280;10644;48.834;10.088;2023-04-28T06:03:55;96357.56;;;14.65;63.58
20971;BME280;10644;48.834;10.088;2023-04-28T06:06:24;96346.34;;;14.88;61.73
20971;BME280;10644;48.834;10.088;2023-04-28T06:08:53;96360.06;;;14.89;62.35
20971;BME280;10644;48.834;10.088;2023-04-28T06:11:18;96384.44;;;14.74;63.10
20971;BME280;10644;48.834;10.088;2023-04-28T06:13:49;96388.19;;;14.92;61.79
20971;BME280;10644;48.834;10.088;2023-04-28T06:16:15;96378.59;;;14.94;62.22
20971;BME280;10644;48.834;10.088;2023-04-28T06:18:42;96379.28;;;14.96;62.08
20971;BME280;10644;48.834;10.088;2023-04-28T06:21:08;96373.78;;;15.00;61.87
20971;BME280;10644;48.834;10.088;2023-04-28T06:23:33;96372.50;;;14.95;62.85
20971;BME280;10644;48.834;10.088;2023-04-28T06:25:59;96367.34;;;14.84;63.08
20971;BME280;10644;48.834;10.088;2023-04-28T06:28:24;96374.38;;;14.71;63.67
20971;BME280;10644;48.834;10.088;2023-04-28T06:30:50;96365.44;;;14.97;63.19
20971;BME280;10644;48.834;10.088;2023-04-28T06:33:15;96357.25;;;15.14;62.59
20971;BME280;10644;48.834;10.088;2023-04-28T06:35:45;96347.50;;;15.17;62.25
20971;BME280;10644;48.834;10.088;2023-04-28T06:38:10;96347.03;;;15.34;61.99
20971;BME280;10644;48.834;10.088;2023-04-28T06:40:36;96356.09;;;15.40;62.01
20971;BME280;10644;48.834;10.088;2023-04-28T06:43:01;96354.78;;;15.34;61.60
20971;BME280;10644;48.834;10.088;2023-04-28T06:45:27;96351.84;;;15.50;61.37
20971;BME280;10644;48.834;10.088;2023-04-28T06:47:52;96348.03;;;15.65;60.90
20971;BME280;10644;48.834;10.088;2023-04-28T06:50:21;96353.66;;;15.70;60.26
20971;BME280;10644;48.834;10.088;2023-04-28T06:52:46;96359.75;;;15.80;60.69
20971;BME280;10644;48.834;10.088;2023-04-28T06:55:14;96358.41;;;15.43;62.21
20971;BME280;10644;48.834;10.088;2023-04-28T06:57:40;96360.41;;;15.28;62.08
20971;BME280;10644;48.834;10.088;2023-04-28T07:00:07;96355.97;;;15.41;61.52
20971;BME280;10644;48.834;10.088;2023-04-28T07:02:32;96356.75;;;15.53;61.83
20971;BME280;10644;48.834;10.088;2023-04-28T07:04:59;96353.50;;;15.40;62.34
20971;BME280;10644;48.834;10.088;2023-04-28T07:07:24;96340.31;;;15.32;62.29
20971;BME280;10644;48.834;10.088;2023-04-28T07:09:50;96331.91;;;15.30;61.80
20971;BME280;10644;48.834;10.088;2023-04-28T07:12:17;96334.00;;;15.25;62.80
20971;BME280;10644;48.834;10.088;2023-04-28T07:14:42;96325.34;;;15.15;62.77
20971;BME280;10644;48.834;10.088;2023-04-28T07:17:08;96330.94;;;15.31;62.73
20971;BME280;10644;48.834;10.088;2023-04-28T07:19:33;96331.69;;;15.33;62.89
20971;BME280;10644;48.834;10.088;2023-04-28T07:21:58;96332.81;;;15.51;62.36
20971;BME280;10644;48.834;10.088;2023-04-28T07:24:24;96335.13;;;15.65;62.38
20971;BME280;10644;48.834;10.088;2023-04-28T07:26:51;96335.56;;;15.70;62.24
20971;BME280;10644;48.834;10.088;2023-04-28T07:29:16;96334.19;;;15.66;62.29
20971;BME280;10644;48.834;10.088;2023-04-28T07:31:42;96329.28;;;15.63;62.96
20971;BME280;10644;48.834;10.088;2023-04-28T07:34:07;96334.44;;;15.63;62.82
20971;BME280;10644;48.834;10.088;2023-04-28T07:36:33;96330.16;;;15.41;63.92
20971;BME280;10644;48.834;10.088;2023-04-28T07:38:59;96340.81;;;15.48;63.20
20971;BME280;10644;48.834;10.088;2023-04-28T07:41:26;96329.59;;;14.72;66.38
20971;BME280;10644;48.834;10.088;2023-04-28T07:43:52;96333.09;;;14.49;67.36
20971;BME280;10644;48.834;10.088;2023-04-28T07:46:20;96337.81;;;14.77;66.49
20971;BME280;10644;48.834;10.088;2023-04-28T07:48:45;96333.56;;;15.09;65.68
20971;BME280;10644;48.834;10.088;2023-04-28T07:51:10;96338.94;;;15.28;65.11
20971;BME280;10644;48.834;10.088;2023-04-28T07:53:36;96349.75;;;15.44;64.88
20971;BME280;10644;48.834;10.088;2023-04-28T07:56:02;96350.19;;;15.49;64.79
20971;BME280;10644;48.834;10.088;2023-04-28T07:58:27;96346.41;;;15.64;64.55
20971;BME280;10644;48.834;10.088;2023-04-28T08:00:55;96318.19;;;15.72;64.06
20971;BME280;10644;48.834;10.088;2023-04-28T08:03:20;96307.75;;;15.73;64.00
20971;BME280;10644;48.834;10.088;2023-04-28T08:05:46;96304.94;;;15.76;64.24
20971;BME280;10644;48.834;10.088;2023-04-28T08:08:11;96314.72;;;15.62;65.70
20971;BME280;10644;48.834;10.088;2023-04-28T08:10:36;96309.03;;;15.47;66.88
20971;BME280;10644;48.834;10.088;2023-04-28T08:13:04;96309.09;;;15.57;67.00
20971;BME280;10644;48.834;10.088;2023-04-28T08:15:30;96319.50;;;15.66;66.87
20971;BME280;10644;48.834;10.088;2023-04-28T08:17:55;96314.28;;;15.57;67.07
20971;BME280;10644;48.834;10.088;2023-04-28T08:20:20;96320.91;;;15.06;69.00
20971;BME280;10644;48.834;10.088;2023-04-28T08:22:46;96320.63;;;15.20;68.85
20971;BME280;10644;48.834;10.088;2023-04-28T08:25:11;96319.56;;;15.44;68.14
20971;BME280;10644;48.834;10.088;2023-04-28T08:27:37;96321.78;;;15.49;68.29
20971;BME280;10644;48.834;10.088;2023-04-28T08:30:06;96306.97;;;15.62;68.46
20971;BME280;10644;48.834;10.088;2023-04-28T08:32:31;96315.25;;;15.45;69.00
20971;BME280;10644;48.834;10.088;2023-04-28T08:34:57;96313.13;;;15.28;69.91
20971;BME280;10644;48.834;10.088;2023-04-28T08:37:22;96323.69;;;15.14;70.70
20971;BME280;10644;48.834;10.088;2023-04-28T08:39:48;96328.84;;;15.25;69.98
20971;BME280;10644;48.834;10.088;2023-04-28T08:42:24;96328.63;;;15.50;69.06
20971;BME280;10644;48.834;10.088;2023-04-28T08:44:50;96335.56;;;15.70;68.32
20971;BME280;10644;48.834;10.088;2023-04-28T08:47:23;96339.66;;;15.83;67.75
20971;BME280;10644;48.834;10.088;2023-04-28T08:49:53;96323.47;;;15.81;67.83
20971;BME280;10644;48.834;10.088;2023-04-28T08:52:23;96338.50;;;15.76;68.88
20971;BME280;10644;48.834;10.088;2023-04-28T08:54:50;96346.91;;;15.89;68.50
20971;BME280;10644;48.834;10.088;2023-04-28T08:57:16;96350.59;;;16.07;67.70
20971;BME280;10644;48.834;10.088;2023-04-28T08:59:43;96339.91;;;16.12;67.84
20971;BME280;10644;48.834;10.088;2023-04-28T09:02:08;96349.34;;;16.22;66.97
20971;BME280;10644;48.834;10.088;2023-04-28T09:04:34;96350.19;;;16.23;66.73
20971;BME280;10644;48.834;10.088;2023-04-28T09:06:59;96349.69;;;16.29;66.84
20971;BME280;10644;48.834;10.088;2023-04-28T09:09:27;96354.66;;;16.41;67.24
20971;BME280;10644;48.834;10.088;2023-04-28T09:11:58;96353.91;;;16.50;66.48
20971;BME280;10644;48.834;10.088;2023-04-28T09:14:25;96346.84;;;16.52;66.21
20971;BME280;10644;48.834;10.088;2023-04-28T09:16:51;96345.78;;;16.55;66.48
20971;BME280;10644;48.834;10.088;2023-04-28T09:19:16;96348.75;;;16.50;66.45
20971;BME280;10644;48.834;10.088;2023-04-28T09:21:53;96346.00;;;16.42;67.02
20971;BME280;10644;48.834;10.088;2023-04-28T09:24:31;96346.59;;;16.35;67.60
20971;BME280;10644;48.834;10.088;2023-04-28T09:27:01;96338.81;;;16.35;68.11
20971;BME280;10644;48.834;10.088;2023-04-28T09:29:28;96338.81;;;16.35;67.96
20971;BME280;10644;48.834;10.088;2023-04-28T09:31:53;96356.22;;;16.33;68.70
20971;BME280;10644;48.834;10.088;2023-04-28T09:34:20;96348.19;;;16.47;68.42
20971;BME280;10644;48.834;10.088;2023-04-28T09:36:46;96342.59;;;16.72;68.14
20971;BME280;10644;48.834;10.088;2023-04-28T09:39:14;96338.47;;;16.60;68.10
20971;BME280;10644;48.834;10.088;2023-04-28T09:41:43;96343.91;;;16.57;69.15
20971;BME280;10644;48.834;10.088;2023-04-28T09:44:17;96331.16;;;16.44;69.91
20971;BME280;10644;48.834;10.088;2023-04-28T09:46:44;96352.06;;;16.62;69.58
20971;BME280;10644;48.834;10.088;2023-04-28T09:49:11;96345.72;;;16.66;68.94
20971;BME280;10644;48.834;10.088;2023-04-28T09:51:36;96347.53;;;16.75;68.18
20971;BME280;10644;48.834;10.088;2023-04-28T09:54:02;96344.47;;;16.90;67.99
20971;BME280;10644;48.834;10.088;2023-04-28T09:56:29;96335.75;;;16.91;67.83
20971;BME280;10644;48.834;10.088;2023-04-28T09:58:56;96344.69;;;17.08;67.92
20971;BME280;10644;48.834;10.088;2023-04-28T10:01:31;96353.88;;;17.21;67.69
20971;BME280;10644;48.834;10.088;2023-04-28T10:03:59;96337.09;;;17.25;67.88
20971;BME280;10644;48.834;10.088;2023-04-28T10:06:26;96336.84;;;17.28;68.34
20971;BME280;10644;48.834;10.088;2023-04-28T10:08:54;96339.03;;;17.33;67.98
20971;BME280;10644;48.834;10.088;2023-04-28T10:11:22;96327.31;;;17.29;68.67
20971;BME280;10644;48.834;10.088;2023-04-28T10:13:49;96321.88;;;17.32;68.70
20971;BME280;10644;48.834;10.088;2023-04-28T10:16:15;96320.25;;;17.31;69.62
20971;BME280;10644;48.834;10.088;2023-04-28T10:18:41;96309.09;;;17.40;69.48
20971;BME280;10644;48.834;10.088;2023-04-28T10:21:07;96299.88;;;17.47;69.09
20971;BME280;10644;48.834;10.088;2023-04-28T10:29:24;96309.16;;;17.59;70.55
20971;BME280;10644;48.834;10.088;2023-04-28T10:34:39;96313.75;;;17.46;70.77
20971;BME280;10644;48.834;10.088;2023-04-28T10:37:05;96305.06;;;17.56;71.01
20971;BME280;10644;48.834;10.088;2023-04-28T10:39:30;96321.38;;;17.38;72.13
20971;BME280;10644;48.834;10.088;2023-04-28T10:41:56;96311.69;;;17.40;72.29
20971;BME280;10644;48.834;10.088;2023-04-28T10:47:05;96323.97;;;17.47;72.77
20971;BME280;10644;48.834;10.088;2023-04-28T11:00:51;96333.88;;;17.33;72.92
20971;BME280;10644;48.834;10.088;2023-04-28T11:06:22;96319.75;;;17.46;72.11
20971;BME280;10644;48.834;10.088;2023-04-28T11:08:51;96318.38;;;17.52;72.17
20971;BME280;10644;48.834;10.088;2023-04-28T11:11:27;96307.53;;;17.58;72.40
20971;BME280;10644;48.834;10.088;2023-04-28T11:13:54;96321.50;;;17.46;73.05
20971;BME280;10644;48.834;10.088;2023-04-28T11:16:24;96318.38;;;17.52;72.68
20971;BME280;10644;48.834;10.088;2023-04-28T11:18:50;96314.47;;;17.57;73.40
20971;BME280;10644;48.834;10.088;2023-04-28T11:21:17;96326.75;;;17.55;73.61
20971;BME280;10644;48.834;10.088;2023-04-28T11:23:43;96313.50;;;17.49;73.30
20971;BME280;10644;48.834;10.088;2023-04-28T11:26:09;96317.84;;;17.48;73.57
20971;BME280;10644;48.834;10.088;2023-04-28T11:28:37;96324.00;;;17.57;72.77
20971;BME280;10644;48.834;10.088;2023-04-28T11:31:11;96349.09;;;17.47;73.66
20971;BME280;10644;48.834;10.088;2023-04-28T11:33:37;96343.97;;;17.36;73.75
20971;BME280;10644;48.834;10.088;2023-04-28T11:36:04;96332.03;;;17.54;73.15
20971;BME280;10644;48.834;10.088;2023-04-28T11:38:29;96342.44;;;17.73;72.28
20971;BME280;10644;48.834;10.088;2023-04-28T11:41:00;96339.16;;;17.61;72.70
20971;BME280;10644;48.834;10.088;2023-04-28T11:43:31;96345.81;;;17.54;73.32
20971;BME280;10644;48.834;10.088;2023-04-28T11:45:57;96328.75;;;17.52;73.55
20971;BME280;10644;48.834;10.088;2023-04-28T11:48:22;96336.16;;;17.66;73.98
20971;BME280;10644;48.834;10.088;2023-04-28T11:50:47;96335.38;;;17.84;73.15
20971;BME280;10644;48.834;10.088;2023-04-28T11:53:15;96345.31;;;17.98;72.80
20971;BME280;10644;48.834;10.088;2023-04-28T11:55:40;96342.72;;;17.89;73.43
20971;BME280;10644;48.834;10.088;2023-04-28T11:58:19;96341.91;;;17.98;73.18
20971;BME280;10644;48.834;10.088;2023-04-28T12:01:08;96343.56;;;18.08;72.45
20971;BME280;10644;48.834;10.088;2023-04-28T12:03:45;96327.72;;;18.02;73.10
20971;BME280;10644;48.834;10.088;2023-04-28T12:06:16;96343.25;;;18.02;73.04
20971;BME280;10644;48.834;10.088;2023-04-28T12:08:45;96334.53;;;18.22;72.64
20971;BME280;10644;48.834;10.088;2023-04-28T12:11:12;96332.09;;;18.11;72.93
20971;BME280;10644;48.834;10.088;2023-04-28T12:13:38;96331.69;;;18.06;73.35
20971;BME280;10644;48.834;10.088;2023-04-28T12:16:05;96342.16;;;18.14;73.37
20971;BME280;10644;48.834;10.088;2023-04-28T12:18:31;96322.25;;;18.05;73.19
20971;BME280;10644;48.834;10.088;2023-04-28T12:20:57;96325.13;;;18.30;72.96
20971;BME280;10644;48.834;10.088;2023-04-28T12:25:57;96315.97;;;18.45;73.35
20971;BME280;10644;48.834;10.088;2023-04-28T12:28:23;96323.84;;;18.63;73.25
20971;BME280;10644;48.834;10.088;2023-04-28T12:30:50;96316.19;;;18.61;73.74
20971;BME280;10644;48.834;10.088;2023-04-28T12:33:28;96315.97;;;18.36;73.67
20971;BME280;10644;48.834;10.088;2023-04-28T12:35:55;96311.91;;;18.43;74.41
20971;BME280;10644;48.834;10.088;2023-04-28T12:38:22;96307.78;;;18.50;73.91
20971;BME280;10644;48.834;10.088;2023-04-28T12:40:47;96317.59;;;18.56;74.23
20971;BME280;10644;48.834;10.088;2023-04-28T12:43:15;96309.66;;;18.67;73.63
20971;BME280;10644;48.834;10.088;2023-04-28T12:45:52;96310.22;;;18.61;73.29
20971;BME280;10644;48.834;10.088;2023-04-28T12:48:18;96313.94;;;18.49;73.58
20971;BME280;10644;48.834;10.088;2023-04-28T12:50:44;96313.50;;;18.53;73.91
20971;BME280;10644;48.834;10.088;2023-04-28T12:53:10;96328.06;;;18.64;73.76
20971;BME280;10644;48.834;10.088;2023-04-28T12:55:36;96319.78;;;18.51;73.82
20971;BME280;10644;48.834;10.088;2023-04-28T12:58:03;96337.88;;;18.70;73.32
20971;BME280;10644;48.834;10.088;2023-04-28T13:00:29;96338.88;;;18.59;73.22
20971;BME280;10644;48.834;10.088;2023-04-28T13:02:54;96336.56;;;18.47;73.02
20971;BME280;10644;48.834;10.088;2023-04-28T13:05:20;96335.34;;;18.51;73.47
20971;BME280;10644;48.834;10.088;2023-04-28T13:07:46;96344.50;;;18.55;73.19
20971;BME280;10644;48.834;10.088;2023-04-28T13:10:13;96327.88;;;18.48;72.70
20971;BME280;10644;48.834;10.088;2023-04-28T13:12:41;96330.44;;;18.48;72.87
20971;BME280;10644;48.834;10.088;2023-04-28T13:15:07;96329.88;;;18.63;72.72